TimeMST,TemperatureF,Dew PointF,Humidity,Sea Level PressureIn,VisibilityMPH,Wind Direction,Wind SpeedMPH,Gust SpeedMPH,PrecipitationIn,Events,Conditions,WindDirDegrees,DateUTC
12:15 AM,95.0,55.4,26,29.73,10.0,SSE,3.5,-,N/A,,Clear,160,2013-07-15 07:15:00
12:35 AM,95.0,55.4,26,29.73,10.0,South,5.8,-,N/A,,Clear,170,2013-07-15 07:35:00
12:55 AM,95.0,55.4,26,29.73,10.0,SE,4.6,-,N/A,,Clear,140,2013-07-15 07:55:00
1:15 AM,95.0,57.2,28,29.73,10.0,Calm,Calm,-,N/A,,Clear,0,2013-07-15 08:15:00
1:35 AM,93.2,55.4,28,29.73,10.0,South,3.5,-,N/A,,Clear,190,2013-07-15 08:35:00
1:55 AM,93.2,57.2,30,29.73,10.0,Calm,Calm,-,N/A,,Clear,0,2013-07-15 08:55:00
2:15 AM,93.2,57.2,30,29.73,10.0,Calm,Calm,-,N/A,,Clear,0,2013-07-15 09:15:00
2:35 AM,93.2,57.2,30,29.73,10.0,Calm,Calm,-,N/A,,Clear,0,2013-07-15 09:35:00
2:55 AM,91.4,57.2,31,29.73,10.0,South,3.5,-,N/A,,Clear,180,2013-07-15 09:55:00
3:15 AM,91.4,57.2,31,29.73,10.0,SSE,3.5,-,N/A,,Clear,150,2013-07-15 10:15:00
3:35 AM,91.4,57.2,31,29.73,10.0,Calm,Calm,-,N/A,,Clear,0,2013-07-15 10:35:00
3:55 AM,91.4,57.2,31,29.73,10.0,Calm,Calm,-,N/A,,Clear,0,2013-07-15 10:55:00
4:15 AM,89.6,57.2,33,29.73,10.0,Calm,Calm,-,N/A,,Clear,0,2013-07-15 11:15:00
4:35 AM,89.6,57.2,33,29.73,10.0,Calm,Calm,-,N/A,,Clear,0,2013-07-15 11:35:00
4:55 AM,89.6,57.2,33,29.74,10.0,Calm,Calm,-,N/A,,Clear,0,2013-07-15 11:55:00
5:15 AM,89.6,57.2,33,29.74,10.0,Calm,Calm,-,N/A,,Clear,0,2013-07-15 12:15:00
5:35 AM,89.6,57.2,33,29.74,10.0,East,4.6,-,N/A,,Clear,100,2013-07-15 12:35:00
5:55 AM,91.4,57.2,31,29.74,10.0,ESE,3.5,-,N/A,,Clear,120,2013-07-15 12:55:00
6:15 AM,91.4,57.2,31,29.75,10.0,Calm,Calm,-,N/A,,Clear,0,2013-07-15 13:15:00
6:35 AM,93.2,57.2,30,29.75,10.0,Calm,Calm,-,N/A,,Clear,0,2013-07-15 13:35:00
6:55 AM,93.2,57.2,30,29.76,10.0,South,3.5,-,N/A,,Clear,170,2013-07-15 13:55:00
7:15 AM,93.2,57.2,30,29.76,10.0,South,4.6,-,N/A,,Clear,170,2013-07-15 14:15:00
7:35 AM,93.2,57.2,30,29.76,10.0,South,5.8,-,N/A,,Clear,170,2013-07-15 14:35:00
7:55 AM,95.0,57.2,28,29.76,10.0,South,4.6,-,N/A,,Clear,180,2013-07-15 14:55:00
8:15 AM,95.0,57.2,28,29.77,10.0,SSW,5.8,-,N/A,,Clear,210,2013-07-15 15:15:00
8:35 AM,95.0,57.2,28,29.77,10.0,ESE,5.8,-,N/A,,Clear,120,2013-07-15 15:35:00
8:55 AM,95.0,57.2,28,29.76,10.0,SSW,4.6,-,N/A,,Clear,200,2013-07-15 15:55:00
9:15 AM,96.8,57.2,27,29.76,10.0,South,5.8,-,N/A,,Clear,190,2013-07-15 16:15:00
9:35 AM,98.6,59.0,27,29.76,10.0,SSW,5.8,-,N/A,,Clear,210,2013-07-15 16:35:00
9:55 AM,100.4,59.0,25,29.75,10.0,SW,8.1,-,N/A,,Clear,220,2013-07-15 16:55:00
10:15 AM,100.4,57.2,24,29.75,10.0,SSW,8.1,-,N/A,,Clear,200,2013-07-15 17:15:00
10:35 AM,102.2,57.2,22,29.75,10.0,SW,10.4,-,N/A,,Clear,220,2013-07-15 17:35:00
10:55 AM,104.0,53.6,19,29.74,10.0,SSW,9.2,-,N/A,,Clear,210,2013-07-15 17:55:00
11:15 AM,104.0,48.2,15,29.74,10.0,SSW,8.1,16.1,N/A,,Clear,210,2013-07-15 18:15:00
11:35 AM,105.8,44.6,13,29.73,10.0,South,5.8,-,N/A,,Clear,180,2013-07-15 18:35:00
11:55 AM,107.6,46.4,13,29.72,10.0,SSW,10.4,-,N/A,,Clear,200,2013-07-15 18:55:00
12:15 PM,107.6,50.0,15,29.71,10.0,SW,8.1,-,N/A,,Clear,220,2013-07-15 19:15:00
12:35 PM,107.6,53.6,17,29.70,10.0,SSW,11.5,16.1,N/A,,Clear,210,2013-07-15 19:35:00
12:55 PM,107.6,53.6,17,29.69,10.0,SSW,15.0,-,N/A,,Clear,200,2013-07-15 19:55:00
1:15 PM,109.4,53.6,16,29.68,10.0,SSW,11.5,19.6,N/A,,Clear,200,2013-07-15 20:15:00
1:35 PM,109.4,51.8,15,29.67,10.0,South,12.7,25.3,N/A,,Clear,180,2013-07-15 20:35:00
1:55 PM,109.4,53.6,16,29.65,10.0,SW,13.8,-,N/A,,Clear,230,2013-07-15 20:55:00
2:15 PM,109.4,53.6,16,29.65,10.0,SSE,12.7,24.2,N/A,,Clear,150,2013-07-15 21:15:00
2:35 PM,109.4,50.0,14,29.64,10.0,SSE,11.5,19.6,N/A,,Clear,150,2013-07-15 21:35:00
2:55 PM,111.2,48.2,12,29.62,10.0,East,18.4,23.0,N/A,,Clear,80,2013-07-15 21:55:00
3:15 PM,111.2,48.2,12,29.62,10.0,SSE,15.0,24.2,N/A,,Clear,150,2013-07-15 22:15:00
3:35 PM,109.4,50.0,14,29.61,10.0,SSE,18.4,24.2,N/A,,Clear,160,2013-07-15 22:35:00
3:55 PM,109.4,50.0,14,29.61,10.0,SE,9.2,23.0,N/A,,Clear,140,2013-07-15 22:55:00
4:15 PM,109.4,50.0,14,29.59,10.0,SE,18.4,26.5,N/A,,Clear,140,2013-07-15 23:15:00
4:35 PM,111.2,50.0,13,29.59,10.0,SSW,11.5,19.6,N/A,,Clear,200,2013-07-15 23:35:00
4:55 PM,111.2,48.2,12,29.59,10.0,SSE,6.9,18.4,N/A,,Clear,150,2013-07-15 23:55:00
5:15 PM,109.4,48.2,13,29.59,10.0,South,9.2,21.9,N/A,,Clear,170,2013-07-16 00:15:00
5:35 PM,111.2,48.2,12,29.59,10.0,SSE,12.7,21.9,N/A,,Clear,150,2013-07-16 00:35:00
5:55 PM,109.4,48.2,13,29.59,10.0,SSE,11.5,23.0,N/A,,Clear,160,2013-07-16 00:55:00
6:15 PM,109.4,48.2,13,29.59,10.0,SSE,10.4,17.3,N/A,,Clear,160,2013-07-16 01:15:00
6:35 PM,109.4,48.2,13,29.59,10.0,SE,12.7,16.1,N/A,,Clear,130,2013-07-16 01:35:00
6:55 PM,109.4,48.2,13,29.58,10.0,SE,17.3,-,N/A,,Clear,140,2013-07-16 01:55:00
7:15 PM,109.4,48.2,13,29.59,10.0,South,12.7,-,N/A,,Clear,170,2013-07-16 02:15:00
7:35 PM,107.6,48.2,14,29.59,10.0,South,15.0,-,N/A,,Clear,180,2013-07-16 02:35:00
7:55 PM,107.6,48.2,14,29.59,10.0,South,13.8,-,N/A,,Clear,190,2013-07-16 02:55:00
8:15 PM,104.0,55.4,20,29.60,10.0,SE,20.7,25.3,N/A,,Clear,140,2013-07-16 03:15:00
8:35 PM,104.0,55.4,20,29.61,10.0,ESE,17.3,24.2,N/A,,Clear,120,2013-07-16 03:35:00
8:55 PM,104.0,53.6,19,29.62,10.0,East,17.3,24.2,N/A,,Clear,80,2013-07-16 03:55:00
9:15 PM,102.2,53.6,20,29.64,10.0,SE,11.5,-,N/A,,Clear,140,2013-07-16 04:15:00
9:35 PM,98.6,59.0,27,29.65,10.0,ESE,9.2,-,N/A,,Clear,120,2013-07-16 04:35:00
9:55 PM,96.8,59.0,28,29.66,10.0,South,8.1,-,N/A,,Clear,190,2013-07-16 04:55:00
10:15 PM,96.8,57.2,27,29.67,10.0,SSW,8.1,-,N/A,,Clear,200,2013-07-16 05:15:00
10:35 PM,95.0,57.2,28,29.67,10.0,ESE,8.1,-,N/A,,Clear,120,2013-07-16 05:35:00
10:55 PM,95.0,57.2,28,29.68,10.0,SSW,10.4,-,N/A,,Clear,200,2013-07-16 05:55:00
11:15 PM,95.0,55.4,26,29.68,10.0,South,12.7,-,N/A,,Clear,190,2013-07-16 06:15:00
11:35 PM,95.0,55.4,26,29.68,10.0,South,13.8,-,N/A,,Clear,170,2013-07-16 06:35:00
11:55 PM,95.0,57.2,28,29.69,10.0,East,6.9,-,N/A,,Clear,100,2013-07-16 06:55:00